createdAt,value
2022-09-23T00:00:14.196Z,7.00
2022-09-23T00:02:41.300Z,7.00
2022-09-23T00:05:09.084Z,6.90
2022-09-23T00:07:36.236Z,6.90
2022-09-23T00:10:03.388Z,6.90
2022-09-23T00:12:30.464Z,6.90
2022-09-23T00:14:57.632Z,6.90
2022-09-23T00:17:24.938Z,6.80
2022-09-23T00:19:51.971Z,6.90
2022-09-23T00:22:19.287Z,6.90
2022-09-23T00:24:46.476Z,7.00
2022-09-23T00:27:13.632Z,7.00
2022-09-23T00:29:40.785Z,7.00
2022-09-23T00:32:08.158Z,7.00
2022-09-23T00:34:35.196Z,6.90
2022-09-23T00:37:02.305Z,6.90
2022-09-23T00:39:29.374Z,6.80
2022-09-23T00:41:56.463Z,6.90
2022-09-23T00:44:44.945Z,6.90
2022-09-23T00:47:17.322Z,6.90
2022-09-23T00:49:44.932Z,6.90
2022-09-23T00:52:13.580Z,6.90
2022-09-23T00:54:40.932Z,7.00
2022-09-23T00:57:08.914Z,7.00
2022-09-23T00:59:36.692Z,7.00
2022-09-23T01:02:04.982Z,7.00
2022-09-23T01:04:32.537Z,7.00
2022-09-23T01:06:59.561Z,7.00
2022-09-23T01:09:26.766Z,6.90
2022-09-23T01:12:00.270Z,6.90
2022-09-23T01:14:37.805Z,6.90
2022-09-23T01:17:04.890Z,6.90
2022-09-23T01:19:46.880Z,6.90
2022-09-23T01:22:23.093Z,6.90
2022-09-23T01:24:50.170Z,6.90
2022-09-23T01:27:38.417Z,7.00
2022-09-23T01:30:11.386Z,7.00
2022-09-23T01:32:42.662Z,7.00
2022-09-23T01:35:17.379Z,7.00
2022-09-23T01:37:59.466Z,7.10
2022-09-23T01:40:45.072Z,7.10
2022-09-23T01:43:31.369Z,7.10
2022-09-23T01:46:00.203Z,7.10
2022-09-23T01:48:34.498Z,7.10
2022-09-23T01:51:13.895Z,7.00
2022-09-23T01:53:51.271Z,7.00
2022-09-23T01:56:21.411Z,7.00
2022-09-23T01:58:48.604Z,7.00
2022-09-23T02:01:19.288Z,7.00
2022-09-23T02:04:04.620Z,6.90
2022-09-23T02:06:38.773Z,6.80
2022-09-23T02:09:09.510Z,6.70
2022-09-23T02:11:37.518Z,6.70
2022-09-23T02:14:25.420Z,6.50
2022-09-23T02:16:56.235Z,6.50
2022-09-23T02:19:35.395Z,6.40
2022-09-23T02:22:07.495Z,6.40
2022-09-23T02:24:36.509Z,6.30
2022-09-23T02:27:13.511Z,6.10
2022-09-23T02:29:49.867Z,6.00
2022-09-23T02:32:37.245Z,6.00
2022-09-23T02:35:14.560Z,5.90
2022-09-23T02:37:42.719Z,5.80
2022-09-23T02:40:09.916Z,5.80
2022-09-23T02:42:48.636Z,5.80
2022-09-23T02:45:16.202Z,5.80
2022-09-23T02:47:45.096Z,5.80
2022-09-23T02:50:12.176Z,5.90
2022-09-23T02:52:39.277Z,5.80
2022-09-23T02:55:09.041Z,5.80
2022-09-23T02:57:36.164Z,5.80
2022-09-23T03:00:04.471Z,5.80
2022-09-23T03:02:39.184Z,5.90
2022-09-23T03:05:06.855Z,5.90
2022-09-23T03:07:34.062Z,6.10
2022-09-23T03:10:19.762Z,6.10
2022-09-23T03:12:48.095Z,6.10
2022-09-23T03:15:47.735Z,6.10
2022-09-23T03:18:18.353Z,6.10
2022-09-23T03:20:45.573Z,6.20
2022-09-23T03:23:15.438Z,6.20
2022-09-23T03:25:44.961Z,6.30
2022-09-23T03:28:12.787Z,6.30
2022-09-23T03:30:40.409Z,6.40
2022-09-23T03:33:09.563Z,6.40
2022-09-23T03:35:59.628Z,6.40
2022-09-23T03:38:30.585Z,6.40
2022-09-23T03:40:58.935Z,6.50
2022-09-23T03:43:26.197Z,6.50
2022-09-23T03:45:54.047Z,6.50
2022-09-23T03:48:22.586Z,6.60
2022-09-23T03:50:50.114Z,6.50
2022-09-23T03:53:19.315Z,6.60
2022-09-23T03:55:47.016Z,6.60
2022-09-23T03:58:14.506Z,6.60
2022-09-23T04:00:42.657Z,6.60
2022-09-23T04:03:11.912Z,6.50
2022-09-23T04:05:39.184Z,6.60
2022-09-23T04:08:06.477Z,6.60
2022-09-23T04:10:33.534Z,6.60
2022-09-23T04:13:00.696Z,6.60
2022-09-23T04:15:27.839Z,6.70
2022-09-23T04:17:55.041Z,6.70
2022-09-23T04:20:22.245Z,6.70
2022-09-23T04:22:49.371Z,6.80
2022-09-23T04:25:16.506Z,6.80
2022-09-23T04:27:43.631Z,6.80
2022-09-23T04:30:13.732Z,6.70
2022-09-23T04:32:40.757Z,6.70
2022-09-23T04:35:08.008Z,6.70
2022-09-23T04:37:35.076Z,6.70
2022-09-23T04:40:03.624Z,6.70
2022-09-23T04:42:31.366Z,6.70
2022-09-23T04:44:59.063Z,6.70
2022-09-23T04:47:26.395Z,6.70
2022-09-23T04:49:57.755Z,6.80
2022-09-23T04:52:27.489Z,6.80
2022-09-23T04:54:54.552Z,6.80
2022-09-23T04:57:21.624Z,6.90
2022-09-23T04:59:49.039Z,6.90
2022-09-23T05:02:19.396Z,6.90
2022-09-23T05:04:46.613Z,7.00
2022-09-23T05:07:13.761Z,7.10
2022-09-23T05:09:40.955Z,7.10
2022-09-23T05:12:08.095Z,7.20
2022-09-23T05:14:35.417Z,7.20
2022-09-23T05:17:02.542Z,7.40
2022-09-23T05:19:29.654Z,7.50
2022-09-23T05:21:56.847Z,7.60
2022-09-23T05:24:28.003Z,7.70
2022-09-23T05:26:56.460Z,7.70
2022-09-23T05:29:23.584Z,7.70
2022-09-23T05:31:50.805Z,7.90
2022-09-23T05:34:18.901Z,7.90
2022-09-23T05:36:46.082Z,7.80
2022-09-23T05:39:13.183Z,7.90
2022-09-23T05:41:41.932Z,8.10
2022-09-23T05:44:09.520Z,8.40
2022-09-23T05:46:36.638Z,8.30
2022-09-23T05:49:05.746Z,8.60
2022-09-23T05:51:33.651Z,8.60
2022-09-23T05:54:03.287Z,8.70
2022-09-23T05:56:31.181Z,8.90
2022-09-23T05:58:59.694Z,9.20
2022-09-23T06:01:28.463Z,9.30
2022-09-23T06:03:56.723Z,9.50
2022-09-23T06:06:31.061Z,9.60
2022-09-23T06:08:59.549Z,9.60
2022-09-23T06:11:27.204Z,9.80
2022-09-23T06:14:02.922Z,9.80
2022-09-23T06:16:31.359Z,10.00
2022-09-23T06:19:05.058Z,10.20
2022-09-23T06:21:33.643Z,10.80
2022-09-23T06:24:01.045Z,11.80
2022-09-23T06:26:29.289Z,12.40
2022-09-23T06:28:56.421Z,12.80
2022-09-23T06:31:23.591Z,13.00
2022-09-23T06:33:53.262Z,13.00
2022-09-23T06:36:38.328Z,12.70
2022-09-23T06:39:09.531Z,12.30
2022-09-23T06:41:36.732Z,11.80
2022-09-23T06:44:03.764Z,12.20
2022-09-23T06:46:32.010Z,12.70
2022-09-23T06:48:59.624Z,13.60
2022-09-23T06:51:26.769Z,14.30
2022-09-23T06:53:53.960Z,14.20
2022-09-23T06:56:22.281Z,14.90
2022-09-23T07:01:18.317Z,17.50
2022-09-23T07:03:46.491Z,17.80
2022-09-23T07:06:13.566Z,17.30
2022-09-23T07:08:42.864Z,17.90
2022-09-23T07:11:13.554Z,17.80
2022-09-23T07:13:41.598Z,17.30
2022-09-23T07:16:09.602Z,16.60
2022-09-23T07:18:37.780Z,17.90
2022-09-23T07:21:09.309Z,17.40
2022-09-23T07:23:37.938Z,17.10
2022-09-23T07:26:05.544Z,15.90
2022-09-23T07:28:32.812Z,15.90
2022-09-23T07:31:04.572Z,16.30
2022-09-23T07:33:33.041Z,16.40
2022-09-23T07:36:05.129Z,17.60
2022-09-23T07:38:32.236Z,18.60
2022-09-23T07:41:04.388Z,18.40
2022-09-23T07:43:34.824Z,18.40
2022-09-23T07:46:05.364Z,18.10
2022-09-23T07:48:34.636Z,17.80
2022-09-23T07:51:09.448Z,17.90
2022-09-23T07:53:37.262Z,17.30
2022-09-23T07:56:06.773Z,17.00
2022-09-23T07:58:35.370Z,17.40
2022-09-23T08:01:04.263Z,18.80
2022-09-23T08:03:31.423Z,19.20
2022-09-23T08:06:25.157Z,20.80
2022-09-23T08:08:53.461Z,21.10
2022-09-23T08:11:20.789Z,20.80
2022-09-23T08:13:47.995Z,22.10
2022-09-23T08:16:15.195Z,22.40
2022-09-23T08:18:45.771Z,22.90
2022-09-23T08:21:13.406Z,22.00
2022-09-23T08:23:40.640Z,20.60
2022-09-23T08:26:15.767Z,20.70
2022-09-23T08:28:46.110Z,22.80
2022-09-23T08:31:14.314Z,24.60
2022-09-23T08:33:41.455Z,24.50
2022-09-23T08:36:08.700Z,23.20
2022-09-23T08:38:36.013Z,23.00
2022-09-23T08:41:09.678Z,24.70
2022-09-23T08:43:37.282Z,26.00
2022-09-23T08:46:05.569Z,25.70
2022-09-23T08:48:35.311Z,25.60
2022-09-23T08:51:04.906Z,24.70
2022-09-23T08:53:36.214Z,25.60
2022-09-23T08:56:13.398Z,25.50
2022-09-23T08:58:44.233Z,25.30
2022-09-23T09:01:29.928Z,26.90
2022-09-23T09:04:15.353Z,26.60
2022-09-23T09:06:53.188Z,28.70
2022-09-23T09:09:33.331Z,29.40
2022-09-23T09:12:04.171Z,28.20
2022-09-23T09:14:37.356Z,27.80
2022-09-23T09:17:08.207Z,28.60
2022-09-23T09:19:41.257Z,26.80
2022-09-23T09:22:13.360Z,24.00
2022-09-23T09:24:40.443Z,21.60
2022-09-23T09:27:13.985Z,21.10
2022-09-23T09:29:43.703Z,19.70
2022-09-23T09:32:20.499Z,18.60
2022-09-23T09:34:54.860Z,18.40
2022-09-23T09:37:33.921Z,18.10
2022-09-23T09:40:01.377Z,18.10
2022-09-23T09:42:41.794Z,18.20
2022-09-23T09:45:14.536Z,18.00
2022-09-23T09:47:56.998Z,18.10
2022-09-23T09:50:42.024Z,17.70
2022-09-23T09:53:16.227Z,17.80
2022-09-23T09:55:43.719Z,17.90
2022-09-23T09:58:13.625Z,18.20
2022-09-23T10:00:43.245Z,18.20
2022-09-23T10:03:13.787Z,17.80
2022-09-23T10:05:44.030Z,18.30
2022-09-23T10:08:20.236Z,18.80
2022-09-23T10:10:59.630Z,19.00
2022-09-23T10:13:27.457Z,19.00
2022-09-23T10:15:55.132Z,19.00
2022-09-23T10:18:26.880Z,18.90
2022-09-23T10:21:00.820Z,18.50
2022-09-23T10:23:28.851Z,18.50
2022-09-23T10:25:57.036Z,18.00
2022-09-23T10:28:32.991Z,17.70
2022-09-23T10:31:09.158Z,17.10
2022-09-23T10:33:40.752Z,16.90
2022-09-23T10:36:11.130Z,16.70
2022-09-23T10:38:38.325Z,16.60
2022-09-23T10:41:23.977Z,16.40
2022-09-23T10:44:16.649Z,16.10
2022-09-23T10:47:02.001Z,16.40
2022-09-23T10:49:31.976Z,16.20
2022-09-23T10:52:09.651Z,16.20
2022-09-23T10:54:39.766Z,16.50
2022-09-23T10:57:41.848Z,16.60
2022-09-23T11:00:27.077Z,16.00
2022-09-23T11:03:09.637Z,15.70
2022-09-23T11:05:55.592Z,15.70
2022-09-23T11:08:27.539Z,15.70
2022-09-23T11:11:04.121Z,15.50
2022-09-23T11:13:37.807Z,15.90
2022-09-23T11:16:23.524Z,15.80
2022-09-23T11:19:09.183Z,15.80
2022-09-23T11:21:45.829Z,15.80
2022-09-23T11:24:14.814Z,16.30
2022-09-23T11:26:47.846Z,16.60
2022-09-23T11:29:31.009Z,17.00
2022-09-23T11:32:07.902Z,18.60
2022-09-23T11:34:52.679Z,20.60
2022-09-23T11:37:28.168Z,21.30
2022-09-23T11:39:58.254Z,20.70
2022-09-23T11:42:27.372Z,20.10
2022-09-23T11:44:59.918Z,19.80
2022-09-23T11:47:30.844Z,19.80
2022-09-23T11:50:18.605Z,19.30
2022-09-23T11:52:51.936Z,18.20
2022-09-23T11:55:27.501Z,17.50
2022-09-23T11:57:56.750Z,17.40
2022-09-23T12:00:25.405Z,17.30
2022-09-23T12:03:12.020Z,17.10
2022-09-23T12:05:40.545Z,17.30
2022-09-23T12:08:26.910Z,17.30
2022-09-23T12:10:53.956Z,17.20
2022-09-23T12:13:32.144Z,17.00
2022-09-23T12:16:17.958Z,16.80
2022-09-23T12:19:05.196Z,16.70
2022-09-23T12:21:49.649Z,16.60
2022-09-23T12:26:50.297Z,16.40
2022-09-23T12:29:17.510Z,15.90
2022-09-23T12:31:46.767Z,15.80
2022-09-23T12:34:27.738Z,15.90
2022-09-23T12:37:02.270Z,15.60
2022-09-23T12:39:35.284Z,15.80
2022-09-23T12:42:04.684Z,16.00
2022-09-23T12:44:37.949Z,16.20
2022-09-23T12:47:28.190Z,16.60
2022-09-23T12:49:56.835Z,16.80
2022-09-23T12:52:25.512Z,17.20
2022-09-23T12:54:56.545Z,17.30
2022-09-23T12:57:36.022Z,17.30
2022-09-23T13:00:13.520Z,17.40
2022-09-23T13:02:41.985Z,17.00
2022-09-23T13:05:27.393Z,16.50
2022-09-23T13:08:02.873Z,16.40
2022-09-23T13:10:42.240Z,16.10
2022-09-23T13:13:16.588Z,15.90
2022-09-23T13:15:43.666Z,16.00
2022-09-23T13:18:20.544Z,15.90
2022-09-23T13:20:48.588Z,15.80
2022-09-23T13:23:28.907Z,15.60
2022-09-23T13:25:57.567Z,15.90
2022-09-23T13:28:29.224Z,15.90
2022-09-23T13:30:56.701Z,17.80
2022-09-23T13:33:29.967Z,20.20
2022-09-23T13:35:59.989Z,20.60
2022-09-23T13:38:29.932Z,21.20
2022-09-23T13:40:59.089Z,21.30
2022-09-23T13:43:32.175Z,21.20
2022-09-23T13:46:00.696Z,20.50
2022-09-23T13:48:28.674Z,20.50
2022-09-23T13:50:56.401Z,19.40
2022-09-23T13:53:25.318Z,18.60
2022-09-23T13:56:05.381Z,18.60
2022-09-23T13:58:32.995Z,18.00
2022-09-23T14:01:00.163Z,17.50
2022-09-23T14:03:36.104Z,18.50
2022-09-23T14:06:09.564Z,19.10
2022-09-23T14:08:39.448Z,18.90
2022-09-23T14:11:07.081Z,18.50
2022-09-23T14:13:40.166Z,18.10
2022-09-23T14:16:10.194Z,17.50
2022-09-23T14:18:41.446Z,17.50
2022-09-23T14:21:26.144Z,17.00
2022-09-23T14:23:53.522Z,16.80
2022-09-23T14:26:21.158Z,16.60
2022-09-23T14:28:48.734Z,16.00
2022-09-23T14:31:15.946Z,15.90
2022-09-23T14:33:43.385Z,15.80
2022-09-23T14:41:26.616Z,15.30
2022-09-23T14:44:01.200Z,14.90
2022-09-23T14:48:56.597Z,15.10
2022-09-23T14:51:30.613Z,14.70
2022-09-23T14:54:18.192Z,14.80
2022-09-23T14:59:45.234Z,14.50
2022-09-23T15:02:39.487Z,14.40
2022-09-23T15:05:23.046Z,14.50
2022-09-23T15:07:51.832Z,14.50
2022-09-23T15:10:23.718Z,14.50
2022-09-23T15:12:52.048Z,14.40
2022-09-23T15:15:19.533Z,14.40
2022-09-23T15:17:47.093Z,14.30
2022-09-23T15:20:23.419Z,14.10
2022-09-23T15:22:54.912Z,14.00
2022-09-23T15:25:22.873Z,13.90
2022-09-23T15:28:00.804Z,13.80
2022-09-23T15:30:28.350Z,13.70
2022-09-23T15:32:55.481Z,13.70
2022-09-23T15:35:25.949Z,13.60
2022-09-23T15:37:54.933Z,13.50
2022-09-23T15:40:26.560Z,13.40
2022-09-23T15:42:57.932Z,13.30
2022-09-23T15:45:30.367Z,13.30
2022-09-23T15:47:59.971Z,13.20
2022-09-23T15:50:27.379Z,13.10
2022-09-23T15:52:54.489Z,13.00
2022-09-23T15:55:24.418Z,12.90
2022-09-23T15:57:51.515Z,12.80
2022-09-23T16:00:19.130Z,12.70
2022-09-23T16:02:47.489Z,12.60
2022-09-23T16:05:18.826Z,12.50
2022-09-23T16:07:48.494Z,12.30
2022-09-23T16:10:15.686Z,12.30
2022-09-23T16:12:44.059Z,12.20
2022-09-23T16:15:13.810Z,12.10
2022-09-23T16:17:42.243Z,12.00
2022-09-23T16:20:09.755Z,12.00
2022-09-23T16:22:37.122Z,12.10
2022-09-23T16:25:06.285Z,11.90
2022-09-23T16:27:34.447Z,11.90
2022-09-23T16:30:01.650Z,11.90
2022-09-23T16:32:29.063Z,11.70
2022-09-23T16:34:58.867Z,11.70
2022-09-23T16:37:26.425Z,11.60
2022-09-23T16:39:53.954Z,11.70
2022-09-23T16:42:22.615Z,11.70
2022-09-23T16:44:49.722Z,11.40
2022-09-23T16:47:16.788Z,11.40
2022-09-23T16:49:43.982Z,11.30
2022-09-23T16:52:15.443Z,11.20
2022-09-23T16:54:43.635Z,11.20
2022-09-23T16:57:13.482Z,10.80
2022-09-23T16:59:58.847Z,11.20
2022-09-23T17:02:44.554Z,11.00
2022-09-23T17:05:16.500Z,10.90
2022-09-23T17:07:43.653Z,10.70
2022-09-23T17:10:12.160Z,10.60
2022-09-23T17:12:39.236Z,10.70
2022-09-23T17:15:07.657Z,10.70
2022-09-23T17:17:37.304Z,10.70
2022-09-23T17:20:05.967Z,10.60
2022-09-23T17:22:33.886Z,10.70
2022-09-23T17:25:03.078Z,10.70
2022-09-23T17:27:31.745Z,10.60
2022-09-23T17:29:59.315Z,10.60
2022-09-23T17:32:27.091Z,10.50
2022-09-23T17:34:54.163Z,10.50
2022-09-23T17:37:21.177Z,10.50
2022-09-23T17:39:48.434Z,10.60
2022-09-23T17:42:16.007Z,10.50
2022-09-23T17:44:43.165Z,10.40
2022-09-23T17:47:10.758Z,10.40
2022-09-23T17:49:42.658Z,10.40
2022-09-23T17:52:09.998Z,10.30
2022-09-23T17:54:37.364Z,10.20
2022-09-23T17:57:04.742Z,10.30
2022-09-23T17:59:31.869Z,10.20
2022-09-23T18:01:59.024Z,10.30
2022-09-23T18:04:26.478Z,10.30
2022-09-23T18:06:53.501Z,10.30
2022-09-23T18:09:21.112Z,10.30
2022-09-23T18:11:50.365Z,10.30
2022-09-23T18:14:18.939Z,10.20
2022-09-23T18:16:47.454Z,10.20
2022-09-23T18:19:17.215Z,10.20
2022-09-23T18:21:46.704Z,10.20
2022-09-23T18:24:31.822Z,10.10
2022-09-23T18:27:00.288Z,10.10
2022-09-23T18:29:29.053Z,10.10
2022-09-23T18:31:56.636Z,10.10
2022-09-23T18:34:24.739Z,10.10
2022-09-23T18:36:51.911Z,10.10
2022-09-23T18:39:19.048Z,10.00
2022-09-23T18:41:46.234Z,10.00
2022-09-23T18:44:13.898Z,10.00
2022-09-23T18:46:41.479Z,10.00
2022-09-23T18:49:27.432Z,9.90
2022-09-23T18:51:56.172Z,10.00
2022-09-23T18:54:24.363Z,10.00
2022-09-23T18:56:53.058Z,9.90
2022-09-23T18:59:22.004Z,9.90
2022-09-23T19:01:50.639Z,9.80
2022-09-23T19:04:19.792Z,9.90
2022-09-23T19:06:47.944Z,9.80
2022-09-23T19:09:16.029Z,9.80
2022-09-23T19:11:44.786Z,9.70
2022-09-23T19:14:12.676Z,9.80
2022-09-23T19:16:42.078Z,9.70
2022-09-23T19:19:09.502Z,9.70
2022-09-23T19:21:37.778Z,9.60
2022-09-23T19:24:06.762Z,9.60
2022-09-23T19:26:41.320Z,9.60
2022-09-23T19:29:12.744Z,9.50
2022-09-23T19:31:44.013Z,9.60
2022-09-23T19:34:18.708Z,9.70
2022-09-23T19:36:48.767Z,9.70
2022-09-23T19:39:16.197Z,9.60
2022-09-23T19:41:43.410Z,9.70
2022-09-23T19:44:10.650Z,9.70
2022-09-23T19:46:38.951Z,9.70
2022-09-23T19:49:06.621Z,9.70
2022-09-23T19:51:34.342Z,9.70
2022-09-23T19:54:02.248Z,9.70
2022-09-23T19:56:30.149Z,9.70
2022-09-23T19:58:58.596Z,9.80
2022-09-23T20:01:26.909Z,9.70
2022-09-23T20:03:54.451Z,9.80
2022-09-23T20:06:22.359Z,9.80
2022-09-23T20:08:50.124Z,9.70
2022-09-23T20:11:18.873Z,9.60
2022-09-23T20:13:48.979Z,9.60
2022-09-23T20:16:17.545Z,9.60
2022-09-23T20:18:46.510Z,9.60
2022-09-23T20:21:14.733Z,9.50
2022-09-23T20:23:42.420Z,9.50
2022-09-23T20:26:28.520Z,9.40
2022-09-23T20:28:55.598Z,9.40
2022-09-23T20:31:23.551Z,9.30
2022-09-23T20:33:58.792Z,9.40
2022-09-23T20:36:27.525Z,9.30
2022-09-23T20:38:55.271Z,9.30
2022-09-23T20:41:22.960Z,9.30
2022-09-23T20:43:54.662Z,9.30
2022-09-23T20:46:24.931Z,9.30
2022-09-23T20:48:52.171Z,9.30
2022-09-23T20:51:19.593Z,9.30
2022-09-23T20:53:53.088Z,9.30
2022-09-23T20:56:21.117Z,9.40
2022-09-23T20:58:48.836Z,9.40
2022-09-23T21:01:16.272Z,9.40
2022-09-23T21:03:44.889Z,9.30
2022-09-23T21:06:14.585Z,9.30
2022-09-23T21:08:42.113Z,9.30
2022-09-23T21:11:13.417Z,9.40
2022-09-23T21:13:45.891Z,9.30
2022-09-23T21:16:14.623Z,9.30
2022-09-23T21:18:42.127Z,9.30
2022-09-23T21:21:10.080Z,9.30
2022-09-23T21:23:40.916Z,9.20
2022-09-23T21:26:09.121Z,9.20
2022-09-23T21:28:37.365Z,9.20
2022-09-23T21:31:06.054Z,9.20
2022-09-23T21:33:33.332Z,9.30
2022-09-23T21:36:06.550Z,9.40
2022-09-23T21:38:37.438Z,9.30
2022-09-23T21:41:06.140Z,9.30
2022-09-23T21:43:34.684Z,9.10
2022-09-23T21:46:03.260Z,9.10
2022-09-23T21:48:31.231Z,9.10
2022-09-23T21:50:59.476Z,9.10
2022-09-23T21:53:29.749Z,9.00
2022-09-23T21:56:07.483Z,9.10
2022-09-23T21:58:35.333Z,9.10
2022-09-23T22:01:06.738Z,9.00
2022-09-23T22:03:34.111Z,9.00
2022-09-23T22:06:02.771Z,9.00
2022-09-23T22:08:30.992Z,9.00
2022-09-23T22:10:58.086Z,8.90
2022-09-23T22:13:25.211Z,9.00
2022-09-23T22:15:52.487Z,9.10
2022-09-23T22:18:20.721Z,9.00
2022-09-23T22:20:47.990Z,9.00
2022-09-23T22:23:15.036Z,9.10
2022-09-23T22:25:42.052Z,9.20
2022-09-23T22:28:27.471Z,9.20
2022-09-23T22:31:13.128Z,9.10
2022-09-23T22:33:40.255Z,9.10
2022-09-23T22:36:11.573Z,9.00
2022-09-23T22:38:39.701Z,9.00
2022-09-23T22:41:06.876Z,8.90
2022-09-23T22:43:34.073Z,9.00
2022-09-23T22:46:01.123Z,9.00
2022-09-23T22:48:28.365Z,9.00
2022-09-23T22:50:56.401Z,9.00
2022-09-23T22:53:23.559Z,9.00
2022-09-23T22:55:57.619Z,9.00
2022-09-23T22:58:32.131Z,9.10
2022-09-23T23:01:00.201Z,9.00
2022-09-23T23:03:27.646Z,9.00
2022-09-23T23:05:58.146Z,8.90
2022-09-23T23:08:25.425Z,8.90
2022-09-23T23:10:52.795Z,8.90
2022-09-23T23:13:20.976Z,8.90
2022-09-23T23:15:48.927Z,8.90
2022-09-23T23:18:16.261Z,8.90
2022-09-23T23:20:43.684Z,8.90
2022-09-23T23:23:11.031Z,8.90
2022-09-23T23:25:38.372Z,8.80
2022-09-23T23:28:06.108Z,8.90
2022-09-23T23:30:33.719Z,8.90
2022-09-23T23:33:00.880Z,9.00
2022-09-23T23:35:28.099Z,8.80
2022-09-23T23:37:55.307Z,8.80
2022-09-23T23:40:23.014Z,8.70
2022-09-23T23:42:50.227Z,8.70
2022-09-23T23:45:17.745Z,8.70
2022-09-23T23:47:45.551Z,8.70
2022-09-23T23:50:12.790Z,8.70
2022-09-23T23:52:39.983Z,8.70
2022-09-23T23:55:07.238Z,8.70
2022-09-23T23:57:34.432Z,8.70
